createdAt,value
2022-08-18T00:02:06.765Z,75.53
2022-08-18T00:04:41.005Z,75.38
2022-08-18T00:07:31.247Z,75.27
2022-08-18T00:10:00.068Z,75.27
2022-08-18T00:12:39.152Z,75.20
2022-08-18T00:15:10.657Z,75.16
2022-08-18T00:17:38.027Z,75.03
2022-08-18T00:20:11.907Z,75.04
2022-08-18T00:22:41.894Z,74.89
2022-08-18T00:25:12.284Z,75.02
2022-08-18T00:27:40.766Z,74.93
2022-08-18T00:30:12.966Z,74.99
2022-08-18T00:32:44.797Z,74.90
2022-08-18T00:35:34.564Z,74.83
2022-08-18T00:38:04.826Z,74.80
2022-08-18T00:40:48.143Z,74.86
2022-08-18T00:43:45.895Z,74.75
2022-08-18T00:46:18.814Z,74.61
2022-08-18T00:48:48.328Z,74.67
2022-08-18T00:51:25.778Z,74.61
2022-08-18T00:54:20.581Z,74.66
2022-08-18T00:56:55.615Z,74.65
2022-08-18T00:59:55.448Z,74.67
2022-08-18T01:02:36.409Z,74.72
2022-08-18T01:05:14.783Z,74.87
2022-08-18T01:07:48.643Z,74.81
2022-08-18T01:10:19.853Z,75.03
2022-08-18T01:12:57.565Z,75.18
2022-08-18T01:15:30.239Z,75.07
2022-08-18T01:18:20.751Z,75.19
2022-08-18T01:21:23.230Z,75.33
2022-08-18T01:23:53.571Z,75.42
2022-08-18T01:26:22.065Z,75.72
2022-08-18T01:28:49.332Z,75.73
2022-08-18T01:31:37.264Z,75.87
2022-08-18T01:34:08.233Z,75.96
2022-08-18T01:36:39.999Z,76.19
2022-08-18T01:39:12.168Z,76.20
2022-08-18T01:41:40.195Z,76.31
2022-08-18T01:44:10.610Z,76.36
2022-08-18T01:46:40.950Z,76.51
2022-08-18T01:49:09.863Z,76.64
2022-08-18T01:51:41.981Z,76.82
2022-08-18T01:54:12.999Z,76.77
2022-08-18T01:56:41.871Z,76.89
2022-08-18T01:59:13.808Z,77.01
2022-08-18T02:01:50.404Z,77.10
2022-08-18T02:04:37.122Z,77.17
2022-08-18T02:07:11.037Z,77.53
2022-08-18T02:09:40.981Z,77.62
2022-08-18T02:12:08.725Z,77.57
2022-08-18T02:14:36.709Z,77.65
2022-08-18T02:17:07.101Z,77.55
2022-08-18T02:19:39.008Z,77.48
2022-08-18T02:22:08.692Z,77.41
2022-08-18T02:24:37.160Z,77.46
2022-08-18T02:27:05.581Z,77.32
2022-08-18T02:29:32.889Z,77.34
2022-08-18T02:31:59.794Z,77.29
2022-08-18T02:34:26.742Z,77.41
2022-08-18T02:36:53.693Z,77.35
2022-08-18T02:39:20.784Z,77.25
2022-08-18T02:41:47.737Z,77.20
2022-08-18T02:44:14.852Z,77.11
2022-08-18T02:46:41.680Z,77.01
2022-08-18T02:49:09.215Z,76.99
2022-08-18T02:51:36.068Z,76.91
2022-08-18T02:54:03.152Z,76.98
2022-08-18T02:56:40.347Z,76.97
2022-08-18T02:59:15.823Z,76.98
2022-08-18T03:01:46.356Z,76.78
2022-08-18T03:04:21.137Z,77.01
2022-08-18T03:06:49.868Z,76.87
2022-08-18T03:09:18.073Z,76.75
2022-08-18T03:11:45.797Z,76.74
2022-08-18T03:14:14.214Z,76.80
2022-08-18T03:16:53.871Z,76.82
2022-08-18T03:19:27.697Z,76.70
2022-08-18T03:21:55.230Z,76.67
2022-08-18T03:24:27.733Z,76.67
2022-08-18T03:26:58.782Z,76.66
2022-08-18T03:29:31.314Z,76.75
2022-08-18T03:32:02.575Z,76.66
2022-08-18T03:34:29.980Z,76.92
2022-08-18T03:36:57.243Z,76.80
2022-08-18T03:39:27.027Z,76.86
2022-08-18T03:41:58.053Z,76.80
2022-08-18T03:44:32.083Z,76.91
2022-08-18T03:47:02.264Z,76.80
2022-08-18T03:49:30.834Z,76.93
2022-08-18T03:52:00.156Z,76.89
2022-08-18T03:54:29.105Z,76.88
2022-08-18T03:56:56.041Z,76.90
2022-08-18T03:59:25.527Z,76.97
2022-08-18T04:01:54.399Z,76.98
2022-08-18T04:04:26.713Z,76.68
2022-08-18T04:06:57.717Z,76.93
2022-08-18T04:09:27.885Z,76.96
2022-08-18T04:11:55.701Z,76.97
2022-08-18T04:14:27.978Z,76.93
2022-08-18T04:16:54.816Z,76.90
2022-08-18T04:19:25.184Z,76.80
2022-08-18T04:21:56.294Z,76.98
2022-08-18T04:24:25.637Z,76.64
2022-08-18T04:26:52.900Z,76.45
2022-08-18T04:29:21.038Z,76.37
2022-08-18T04:31:49.855Z,76.13
2022-08-18T04:34:19.826Z,75.91
2022-08-18T04:36:46.665Z,75.63
2022-08-18T04:39:13.506Z,75.59
2022-08-18T04:41:43.442Z,75.27
2022-08-18T04:44:12.332Z,74.89
2022-08-18T04:46:43.735Z,74.55
2022-08-18T04:49:11.586Z,74.46
2022-08-18T04:52:36.099Z,74.14
2022-08-18T04:54:55.236Z,73.88
2022-08-18T04:57:22.457Z,73.61
2022-08-18T04:59:51.670Z,73.43
2022-08-18T05:02:20.606Z,73.06
2022-08-18T05:04:47.867Z,72.66
2022-08-18T05:07:19.321Z,72.46
2022-08-18T05:09:46.343Z,72.53
2022-08-18T05:12:14.927Z,72.23
2022-08-18T05:14:44.564Z,71.78
2022-08-18T05:17:13.760Z,71.65
2022-08-18T05:19:44.299Z,71.73
2022-08-18T05:22:27.826Z,71.81
2022-08-18T05:24:59.312Z,71.53
2022-08-18T05:27:32.417Z,71.44
2022-08-18T05:29:59.412Z,70.81
2022-08-18T05:32:37.119Z,70.75
2022-08-18T05:35:24.625Z,70.61
2022-08-18T05:38:15.058Z,70.28
2022-08-18T05:40:45.405Z,70.15
2022-08-18T05:43:15.769Z,69.90
2022-08-18T05:45:43.506Z,69.40
2022-08-18T05:48:10.349Z,68.99
2022-08-18T05:50:37.275Z,69.07
2022-08-18T05:53:40.367Z,68.94
2022-08-18T05:56:29.554Z,68.70
2022-08-18T05:58:59.008Z,68.38
2022-08-18T06:01:38.230Z,67.81
2022-08-18T06:04:42.236Z,67.49
2022-08-18T06:07:18.794Z,67.62
2022-08-18T06:09:54.480Z,67.22
2022-08-18T06:12:37.337Z,67.12
2022-08-18T06:15:16.320Z,66.61
2022-08-18T06:17:58.420Z,66.39
2022-08-18T06:20:55.520Z,66.14
2022-08-18T06:24:09.010Z,65.98
2022-08-18T06:26:58.655Z,66.62
2022-08-18T06:30:11.988Z,67.00
2022-08-18T06:33:19.004Z,67.04
2022-08-18T06:35:50.035Z,66.90
2022-08-18T06:38:45.490Z,66.80
2022-08-18T06:41:42.925Z,66.90
2022-08-18T06:44:32.701Z,66.56
2022-08-18T06:47:15.479Z,66.41
2022-08-18T06:50:02.650Z,66.17
2022-08-18T06:52:36.220Z,65.95
2022-08-18T06:55:16.405Z,65.77
2022-08-18T06:57:59.313Z,65.62
2022-08-18T07:00:31.418Z,65.68
2022-08-18T07:03:13.837Z,65.76
2022-08-18T07:06:02.173Z,65.58
2022-08-18T07:08:40.766Z,65.14
2022-08-18T07:11:16.809Z,64.24
2022-08-18T07:13:54.936Z,64.33
2022-08-18T07:16:57.208Z,63.91
2022-08-18T07:19:29.270Z,64.20
2022-08-18T07:22:16.923Z,63.57
2022-08-18T07:24:51.084Z,63.36
2022-08-18T07:27:44.218Z,63.60
2022-08-18T07:30:27.713Z,63.38
2022-08-18T07:33:12.036Z,63.35
2022-08-18T07:36:05.225Z,63.07
2022-08-18T07:38:52.821Z,63.20
2022-08-18T07:41:33.253Z,62.79
2022-08-18T07:44:24.565Z,62.42
2022-08-18T07:47:03.085Z,62.14
2022-08-18T07:49:39.028Z,61.60
2022-08-18T07:52:36.407Z,61.36
2022-08-18T07:55:30.662Z,61.41
2022-08-18T07:58:19.899Z,61.49
2022-08-18T08:01:40.820Z,61.43
2022-08-18T08:04:25.276Z,61.53
2022-08-18T08:07:24.377Z,61.51
2022-08-18T08:10:11.508Z,61.18
2022-08-18T08:13:10.610Z,61.60
2022-08-18T08:16:18.015Z,61.44
2022-08-18T08:18:59.589Z,61.19
2022-08-18T08:21:32.592Z,61.03
2022-08-18T08:24:29.522Z,60.92
2022-08-18T08:27:11.403Z,60.92
2022-08-18T08:30:17.807Z,60.64
2022-08-18T08:33:03.396Z,60.77
2022-08-18T08:35:50.930Z,60.33
2022-08-18T08:38:42.234Z,60.22
2022-08-18T08:41:19.260Z,60.30
2022-08-18T08:44:09.755Z,59.82
2022-08-18T08:46:58.344Z,59.41
2022-08-18T08:49:34.414Z,59.13
2022-08-18T08:52:44.080Z,59.09
2022-08-18T08:55:26.276Z,59.00
2022-08-18T08:58:28.801Z,58.95
2022-08-18T09:00:57.284Z,58.83
2022-08-18T09:03:42.396Z,59.31
2022-08-18T09:06:51.001Z,59.24
2022-08-18T09:09:49.862Z,59.15
2022-08-18T09:12:41.453Z,58.90
2022-08-18T09:15:53.126Z,59.11
2022-08-18T09:19:07.807Z,58.80
2022-08-18T09:21:45.304Z,58.89
2022-08-18T09:24:39.543Z,58.77
2022-08-18T09:27:26.297Z,58.65
2022-08-18T09:30:01.841Z,58.73
2022-08-18T09:32:52.935Z,58.49
2022-08-18T09:35:42.309Z,58.03
2022-08-18T09:38:41.323Z,57.76
2022-08-18T09:41:32.292Z,57.81
2022-08-18T09:44:21.533Z,57.07
2022-08-18T09:46:57.514Z,57.01
2022-08-18T09:49:24.561Z,56.77
2022-08-18T09:52:02.167Z,55.99
2022-08-18T09:54:32.785Z,55.46
2022-08-18T09:57:19.200Z,55.07
2022-08-18T09:59:47.168Z,55.08
2022-08-18T10:02:28.624Z,54.41
2022-08-18T10:05:20.443Z,54.09
2022-08-18T10:08:10.150Z,54.32
2022-08-18T10:11:02.622Z,54.08
2022-08-18T10:17:23.931Z,53.50
2022-08-18T10:20:23.957Z,53.15
2022-08-18T10:22:56.013Z,53.39
2022-08-18T10:28:55.536Z,53.24
2022-08-18T10:31:27.225Z,53.11
2022-08-18T10:34:18.971Z,53.19
2022-08-18T10:36:59.921Z,53.12
2022-08-18T10:39:52.317Z,53.01
2022-08-18T10:42:53.545Z,53.08
2022-08-18T10:46:24.566Z,53.29
2022-08-18T10:48:40.329Z,52.85
2022-08-18T10:51:10.725Z,52.49
2022-08-18T10:54:09.638Z,52.39
2022-08-18T10:56:47.573Z,52.00
2022-08-18T10:59:59.396Z,51.71
2022-08-18T11:02:37.134Z,51.34
2022-08-18T11:05:11.074Z,49.27
2022-08-18T11:11:06.299Z,47.59
2022-08-18T11:13:59.590Z,45.96
2022-08-18T11:16:38.828Z,45.52
2022-08-18T11:19:16.837Z,45.22
2022-08-18T11:21:51.372Z,45.66
2022-08-18T11:24:28.085Z,45.17
2022-08-18T11:27:04.494Z,43.81
2022-08-18T11:29:43.721Z,44.03
2022-08-18T11:32:24.130Z,44.08
2022-08-18T11:35:02.973Z,42.54
2022-08-18T11:37:51.599Z,42.06
2022-08-18T11:43:40.752Z,42.56
2022-08-18T11:46:29.356Z,42.67
2022-08-18T11:49:01.108Z,41.99
2022-08-18T11:51:32.322Z,41.44
2022-08-18T11:54:14.868Z,41.77
2022-08-18T11:56:41.727Z,41.91
2022-08-18T11:59:54.945Z,40.79
2022-08-18T12:02:25.266Z,40.35
2022-08-18T12:05:03.027Z,39.51
2022-08-18T12:07:35.397Z,39.45
2022-08-18T12:13:02.348Z,38.45
2022-08-18T12:15:43.382Z,38.86
2022-08-18T12:20:59.389Z,39.74
2022-08-18T12:26:27.206Z,39.83
2022-08-18T12:29:03.602Z,40.17
2022-08-18T12:31:42.491Z,39.67
2022-08-18T12:34:28.158Z,40.14
2022-08-18T12:37:02.650Z,39.48
2022-08-18T12:39:38.139Z,38.82
2022-08-18T12:42:05.336Z,37.97
2022-08-18T12:44:33.633Z,37.64
2022-08-18T12:47:05.441Z,37.47
2022-08-18T12:49:33.758Z,37.16
2022-08-18T12:52:00.568Z,37.74
2022-08-18T12:54:32.246Z,37.51
2022-08-18T12:59:54.214Z,37.47
2022-08-18T13:02:21.750Z,37.44
2022-08-18T13:04:48.630Z,37.37
2022-08-18T13:07:18.941Z,36.66
2022-08-18T13:09:53.321Z,36.52
2022-08-18T13:12:24.898Z,36.63
2022-08-18T13:14:54.125Z,36.71
2022-08-18T13:17:30.101Z,36.68
2022-08-18T13:20:07.933Z,35.92
2022-08-18T13:22:39.826Z,35.74
2022-08-18T13:25:12.190Z,35.75
2022-08-18T13:27:39.383Z,36.11
2022-08-18T13:30:29.536Z,36.41
2022-08-18T13:33:05.935Z,36.04
2022-08-18T13:35:48.407Z,36.20
2022-08-18T13:38:27.221Z,36.50
2022-08-18T13:41:00.176Z,36.70
2022-08-18T13:43:34.252Z,36.63
2022-08-18T13:46:06.271Z,36.72
2022-08-18T13:48:33.870Z,36.91
2022-08-18T13:51:03.466Z,37.06
2022-08-18T13:53:31.930Z,37.25
2022-08-18T13:55:59.713Z,36.97
2022-08-18T13:58:28.457Z,37.09
2022-08-18T14:01:39.563Z,36.85
2022-08-18T14:03:50.281Z,36.45
2022-08-18T14:06:22.952Z,36.86
2022-08-18T14:08:53.327Z,36.79
2022-08-18T14:11:27.359Z,36.77
2022-08-18T14:13:55.725Z,36.80
2022-08-18T14:16:27.375Z,37.01
2022-08-18T14:19:12.665Z,36.83
2022-08-18T14:22:03.752Z,36.97
2022-08-18T14:24:51.462Z,37.13
2022-08-18T14:27:26.650Z,37.18
2022-08-18T14:29:58.905Z,37.17
2022-08-18T14:32:29.924Z,36.97
2022-08-18T14:35:31.964Z,36.78
2022-08-18T14:37:48.347Z,37.02
2022-08-18T14:40:19.328Z,37.30
2022-08-18T14:42:54.253Z,37.67
2022-08-18T14:45:31.587Z,37.84
2022-08-18T14:48:07.511Z,37.57
2022-08-18T14:50:48.914Z,37.38
2022-08-18T14:53:19.667Z,37.51
2022-08-18T14:55:51.751Z,37.97
2022-08-18T14:58:27.316Z,37.93
2022-08-18T15:00:56.887Z,37.90
2022-08-18T15:03:28.186Z,38.26
2022-08-18T15:06:04.689Z,38.33
2022-08-18T15:08:36.091Z,38.47
2022-08-18T15:11:11.410Z,38.53
2022-08-18T15:13:42.960Z,38.72
2022-08-18T15:16:11.042Z,38.94
2022-08-18T15:18:37.848Z,39.27
2022-08-18T15:21:35.440Z,39.33
2022-08-18T15:24:25.944Z,39.60
2022-08-18T15:26:57.976Z,39.65
2022-08-18T15:29:33.653Z,39.81
2022-08-18T15:32:10.125Z,39.75
2022-08-18T15:34:46.726Z,39.83
2022-08-18T15:37:22.334Z,40.03
2022-08-18T15:40:02.826Z,39.59
2022-08-18T15:42:31.159Z,39.58
2022-08-18T15:45:11.963Z,39.77
2022-08-18T15:47:40.152Z,39.93
2022-08-18T15:50:25.266Z,39.98
2022-08-18T15:52:59.064Z,40.05
2022-08-18T15:55:29.098Z,40.19
2022-08-18T15:58:03.088Z,40.18
2022-08-18T16:00:31.852Z,40.33
2022-08-18T16:03:04.108Z,40.28
2022-08-18T16:05:40.200Z,40.53
2022-08-18T16:08:09.809Z,40.65
2022-08-18T16:10:39.441Z,41.03
2022-08-18T16:13:07.325Z,40.73
2022-08-18T16:15:40.757Z,40.88
2022-08-18T16:18:08.977Z,41.21
2022-08-18T16:20:36.770Z,41.33
2022-08-18T16:23:04.797Z,41.72
2022-08-18T16:25:32.435Z,41.95
2022-08-18T16:28:00.567Z,41.77
2022-08-18T16:30:28.834Z,41.90
2022-08-18T16:33:02.160Z,42.18
2022-08-18T16:35:29.935Z,42.20
2022-08-18T16:38:03.752Z,42.24
2022-08-18T16:40:31.001Z,42.47
2022-08-18T16:42:59.880Z,42.52
2022-08-18T16:45:28.284Z,42.69
2022-08-18T16:47:55.113Z,42.57
2022-08-18T16:50:24.328Z,42.85
2022-08-18T16:52:51.684Z,43.01
2022-08-18T16:55:19.623Z,43.24
2022-08-18T16:58:05.278Z,43.46
2022-08-18T17:00:55.190Z,43.69
2022-08-18T17:03:42.313Z,43.82
2022-08-18T17:06:16.772Z,43.55
2022-08-18T17:08:44.845Z,43.77
2022-08-18T17:11:18.298Z,43.70
2022-08-18T17:13:48.177Z,43.93
2022-08-18T17:16:17.630Z,43.82
2022-08-18T17:18:45.595Z,44.10
2022-08-18T17:21:17.916Z,44.04
2022-08-18T17:23:45.351Z,44.26
2022-08-18T17:26:39.439Z,44.35
2022-08-18T17:29:26.608Z,44.42
2022-08-18T17:32:05.551Z,44.68
2022-08-18T17:34:42.101Z,44.77
2022-08-18T17:37:14.702Z,45.06
2022-08-18T17:39:59.944Z,45.16
2022-08-18T17:42:30.708Z,45.27
2022-08-18T17:45:07.537Z,45.59
2022-08-18T17:47:39.963Z,45.82
2022-08-18T17:50:39.351Z,46.16
2022-08-18T17:53:06.434Z,46.32
2022-08-18T17:56:00.929Z,46.69
2022-08-18T17:58:58.149Z,47.03
2022-08-18T18:01:26.772Z,47.25
2022-08-18T18:03:53.987Z,47.50
2022-08-18T18:06:40.299Z,47.63
2022-08-18T18:09:30.686Z,47.84
2022-08-18T18:12:22.881Z,48.09
2022-08-18T18:14:49.885Z,48.31
2022-08-18T18:17:39.693Z,48.38
2022-08-18T18:20:45.287Z,48.43
2022-08-18T18:23:22.124Z,48.74
2022-08-18T18:25:49.969Z,48.94
2022-08-18T18:28:35.380Z,49.13
2022-08-18T18:31:27.323Z,49.20
2022-08-18T18:34:06.366Z,49.26
2022-08-18T18:36:50.390Z,49.31
2022-08-18T18:39:33.818Z,49.61
2022-08-18T18:42:23.273Z,49.70
2022-08-18T18:44:58.460Z,49.64
2022-08-18T18:48:51.080Z,49.78
2022-08-18T18:51:10.541Z,50.01
2022-08-18T18:54:05.677Z,50.37
2022-08-18T18:56:45.018Z,50.31
2022-08-18T18:59:52.919Z,50.43
2022-08-18T19:02:48.909Z,50.77
2022-08-18T19:05:30.938Z,50.90
2022-08-18T19:08:33.171Z,51.00
2022-08-18T19:11:21.775Z,51.36
2022-08-18T19:13:56.825Z,51.82
2022-08-18T19:16:43.291Z,52.18
2022-08-18T19:19:37.599Z,52.70
2022-08-18T19:22:26.770Z,52.99
2022-08-18T19:25:07.066Z,53.27
2022-08-18T19:28:08.353Z,53.75
2022-08-18T19:30:42.038Z,53.92
2022-08-18T19:33:15.088Z,54.46
2022-08-18T19:36:09.381Z,54.56
2022-08-18T19:39:16.693Z,54.67
2022-08-18T19:41:57.403Z,55.61
2022-08-18T19:45:14.966Z,55.83
2022-08-18T19:48:00.383Z,56.32
2022-08-18T19:50:37.405Z,56.41
2022-08-18T19:53:10.044Z,56.67
2022-08-18T19:56:21.508Z,56.92
2022-08-18T19:59:39.569Z,56.74
2022-08-18T20:02:34.545Z,57.14
2022-08-18T20:05:58.775Z,57.46
2022-08-18T20:09:52.953Z,57.31
2022-08-18T20:13:09.321Z,57.74
2022-08-18T20:16:11.494Z,57.79
2022-08-18T20:18:48.383Z,57.70
2022-08-18T20:21:15.110Z,57.87
2022-08-18T20:24:11.845Z,58.17
2022-08-18T20:26:44.394Z,58.13
2022-08-18T20:29:38.148Z,58.30
2022-08-18T20:32:18.951Z,58.20
2022-08-18T20:34:51.173Z,58.81
2022-08-18T20:37:28.230Z,58.82
2022-08-18T20:39:55.736Z,58.93
2022-08-18T20:42:22.595Z,59.39
2022-08-18T20:44:58.887Z,59.21
2022-08-18T20:48:02.364Z,59.36
2022-08-18T20:50:47.931Z,59.45
2022-08-18T20:53:58.491Z,60.21
2022-08-18T20:56:52.798Z,60.62
2022-08-18T20:59:32.053Z,60.49
2022-08-18T21:02:05.275Z,60.89
2022-08-18T21:04:48.904Z,60.82
2022-08-18T21:07:18.581Z,61.27
2022-08-18T21:10:22.513Z,61.19
2022-08-18T21:12:58.804Z,61.41
2022-08-18T21:15:30.012Z,61.42
2022-08-18T21:18:04.179Z,61.48
2022-08-18T21:20:32.608Z,61.73
2022-08-18T21:23:13.268Z,61.82
2022-08-18T21:25:54.352Z,62.03
2022-08-18T21:28:24.764Z,62.13
2022-08-18T21:31:42.101Z,62.39
2022-08-18T21:34:31.803Z,62.50
2022-08-18T21:37:05.824Z,62.66
2022-08-18T21:39:34.314Z,62.90
2022-08-18T21:42:01.877Z,62.92
2022-08-18T21:44:41.058Z,63.30
2022-08-18T21:47:24.781Z,63.39
2022-08-18T21:50:17.286Z,63.24
2022-08-18T21:53:04.828Z,63.26
2022-08-18T21:55:42.657Z,63.48
2022-08-18T21:58:09.418Z,63.51
2022-08-18T22:00:40.369Z,63.70
2022-08-18T22:03:24.404Z,63.63
2022-08-18T22:06:39.820Z,63.92
2022-08-18T22:09:28.075Z,63.92
2022-08-18T22:12:43.552Z,64.21
2022-08-18T22:15:25.421Z,64.13
2022-08-18T22:18:06.888Z,64.14
2022-08-18T22:20:38.038Z,64.25
2022-08-18T22:23:54.351Z,64.55
2022-08-18T22:26:28.719Z,64.42
2022-08-18T22:29:11.111Z,64.61
2022-08-18T22:31:44.984Z,64.54
2022-08-18T22:34:28.276Z,64.58
2022-08-18T22:37:07.072Z,64.65
2022-08-18T22:39:51.019Z,64.83
2022-08-18T22:42:21.160Z,64.83
2022-08-18T22:44:48.440Z,65.01
2022-08-18T22:47:15.712Z,64.91
2022-08-18T22:49:44.534Z,64.89
2022-08-18T22:52:30.098Z,65.02
2022-08-18T22:54:59.413Z,64.98
2022-08-18T22:57:33.831Z,65.09
2022-08-18T23:00:07.447Z,65.04
2022-08-18T23:02:36.082Z,65.08
2022-08-18T23:05:04.893Z,65.37
2022-08-18T23:07:31.902Z,65.28
2022-08-18T23:09:59.612Z,65.19
2022-08-18T23:12:26.491Z,65.30
2022-08-18T23:14:54.344Z,65.40
2022-08-18T23:17:22.053Z,65.35
2022-08-18T23:19:49.037Z,65.41
2022-08-18T23:22:19.365Z,65.42
2022-08-18T23:24:47.864Z,65.39
2022-08-18T23:27:15.330Z,65.50
2022-08-18T23:29:42.175Z,65.50
2022-08-18T23:32:08.999Z,65.59
2022-08-18T23:34:36.252Z,65.61
2022-08-18T23:37:03.972Z,65.58
2022-08-18T23:39:34.130Z,65.73
2022-08-18T23:42:02.904Z,65.67
2022-08-18T23:44:29.856Z,65.71
2022-08-18T23:46:58.419Z,65.80
2022-08-18T23:49:28.068Z,65.81
2022-08-18T23:51:55.536Z,65.91
2022-08-18T23:54:29.329Z,65.98
2022-08-18T23:56:56.912Z,66.01
2022-08-18T23:59:26.515Z,66.20
